sensor_id;sensor_type;location;lat;lon;timestamp;pressure;altitude;pressure_sealevel;temperature;humidity
49627;BME280;35527;54.616;39.786;2022-10-22T00:02:24;100414.63;;;4.80;100.00
49627;BME280;35527;54.616;39.786;2022-10-22T00:05:29;100410.44;;;4.65;100.00
49627;BME280;35527;54.616;39.786;2022-10-22T00:08:34;100417.31;;;4.57;100.00
49627;BME280;35527;54.616;39.786;2022-10-22T00:11:37;100418.22;;;4.48;100.00
49627;BME280;35527;54.616;39.786;2022-10-22T00:14:42;100419.94;;;4.43;100.00
49627;BME280;35527;54.616;39.786;2022-10-22T00:17:46;100402.94;;;4.27;100.00
49627;BME280;35527;54.616;39.786;2022-10-22T00:20:51;100414.91;;;4.25;100.00
49627;BME280;35527;54.616;39.786;2022-10-22T00:23:54;100408.06;;;4.22;100.00
49627;BME280;35527;54.616;39.786;2022-10-22T00:27:01;100420.03;;;4.20;100.00
49627;BME280;35527;54.616;39.786;2022-10-22T00:30:07;100431.13;;;4.27;100.00
49627;BME280;35527;54.616;39.786;2022-10-22T00:33:13;100431.13;;;4.25;100.00
49627;BME280;35527;54.616;39.786;2022-10-22T00:36:18;100426.84;;;4.23;100.00
49627;BME280;35527;54.616;39.786;2022-10-22T00:39:26;100429.41;;;4.26;100.00
49627;BME280;35527;54.616;39.786;2022-10-22T00:42:29;100437.91;;;4.34;100.00
49627;BME280;35527;54.616;39.786;2022-10-22T00:45:36;100424.25;;;4.34;100.00
49627;BME280;35527;54.616;39.786;2022-10-22T00:48:39;100423.41;;;4.30;100.00
49627;BME280;35527;54.616;39.786;2022-10-22T00:51:43;100428.53;;;4.32;100.00
49627;BME280;35527;54.616;39.786;2022-10-22T00:54:45;100417.47;;;4.26;100.00
49627;BME280;35527;54.616;39.786;2022-10-22T00:57:49;100439.56;;;4.46;100.00
49627;BME280;35527;54.616;39.786;2022-10-22T01:00:55;100414.81;;;4.40;100.00
49627;BME280;35527;54.616;39.786;2022-10-22T01:04:01;100407.13;;;4.40;100.00
49627;BME280;35527;54.616;39.786;2022-10-22T01:07:15;100424.22;;;4.47;100.00
49627;BME280;35527;54.616;39.786;2022-10-22T01:13:57;100435.25;;;4.62;100.00
49627;BME280;35527;54.616;39.786;2022-10-22T01:17:15;100407.97;;;4.47;100.00
49627;BME280;35527;54.616;39.786;2022-10-22T01:27:23;100416.59;;;4.31;100.00
49627;BME280;35527;54.616;39.786;2022-10-22T01:30:30;100426.00;;;4.24;100.00
49627;BME280;35527;54.616;39.786;2022-10-22T01:33:35;100426.84;;;4.24;100.00
49627;BME280;35527;54.616;39.786;2022-10-22T01:36:38;100415.75;;;4.22;100.00
49627;BME280;35527;54.616;39.786;2022-10-22T01:39:44;100419.19;;;4.20;100.00
49627;BME280;35527;54.616;39.786;2022-10-22T01:42:56;100421.75;;;4.18;100.00
49627;BME280;35527;54.616;39.786;2022-10-22T01:46:01;100416.63;;;4.09;100.00
49627;BME280;35527;54.616;39.786;2022-10-22T01:49:16;100420.88;;;4.15;100.00
49627;BME280;35527;54.616;39.786;2022-10-22T01:56:32;100424.34;;;4.15;100.00
49627;BME280;35527;54.616;39.786;2022-10-22T02:00:27;100431.06;;;4.38;100.00
49627;BME280;35527;54.616;39.786;2022-10-22T02:03:19;100414.88;;;4.28;100.00
49627;BME280;35527;54.616;39.786;2022-10-22T02:06:26;100415.75;;;4.22;100.00
49627;BME280;35527;54.616;39.786;2022-10-22T02:09:31;100424.28;;;4.20;100.00
49627;BME280;35527;54.616;39.786;2022-10-22T02:12:37;100434.53;;;4.27;100.00
49627;BME280;35527;54.616;39.786;2022-10-22T02:15:42;100437.94;;;4.28;100.00
49627;BME280;35527;54.616;39.786;2022-10-22T02:18:51;100432.81;;;4.23;100.00
49627;BME280;35527;54.616;39.786;2022-10-22T02:21:55;100432.03;;;4.07;100.00
49627;BME280;35527;54.616;39.786;2022-10-22T02:25:00;100442.25;;;4.18;100.00
49627;BME280;35527;54.616;39.786;2022-10-22T02:28:18;100444.78;;;4.23;100.00
49627;BME280;35527;54.616;39.786;2022-10-22T02:31:28;100461.00;;;4.29;100.00
49627;BME280;35527;54.616;39.786;2022-10-22T02:34:33;100461.00;;;4.29;100.00
49627;BME280;35527;54.616;39.786;2022-10-22T02:37:38;100459.28;;;4.36;100.00
49627;BME280;35527;54.616;39.786;2022-10-22T02:40:44;100457.53;;;4.40;100.00
49627;BME280;35527;54.616;39.786;2022-10-22T02:43:50;100452.38;;;4.54;100.00
49627;BME280;35527;54.616;39.786;2022-10-22T02:46:56;100442.16;;;4.40;100.00
49627;BME280;35527;54.616;39.786;2022-10-22T02:49:59;100464.31;;;4.51;100.00
49627;BME280;35527;54.616;39.786;2022-10-22T02:53:03;100457.56;;;4.41;100.00
49627;BME280;35527;54.616;39.786;2022-10-22T02:56:05;100456.75;;;4.27;100.00
49627;BME280;35527;54.616;39.786;2022-10-22T02:59:10;100443.97;;;4.10;100.00
49627;BME280;35527;54.616;39.786;2022-10-22T03:02:16;100446.53;;;4.07;100.00
49627;BME280;35527;54.616;39.786;2022-10-22T03:05:22;100437.19;;;3.98;100.00
49627;BME280;35527;54.616;39.786;2022-10-22T03:08:24;100452.53;;;3.98;100.00
49627;BME280;35527;54.616;39.786;2022-10-22T03:11:30;100446.59;;;3.87;100.00
49627;BME280;35527;54.616;39.786;2022-10-22T03:14:34;100450.84;;;3.85;100.00
49627;BME280;35527;54.616;39.786;2022-10-22T03:17:39;100454.25;;;3.82;100.00
49627;BME280;35527;54.616;39.786;2022-10-22T03:20:42;100459.41;;;3.84;100.00
49627;BME280;35527;54.616;39.786;2022-10-22T03:23:47;100454.28;;;3.78;100.00
49627;BME280;35527;54.616;39.786;2022-10-22T03:26:51;100447.44;;;3.68;100.00
49627;BME280;35527;54.616;39.786;2022-10-22T03:29:56;100449.16;;;3.69;100.00
49627;BME280;35527;54.616;39.786;2022-10-22T03:32:59;100473.03;;;3.81;100.00
49627;BME280;35527;54.616;39.786;2022-10-22T03:36:07;100467.06;;;3.81;100.00
49627;BME280;35527;54.616;39.786;2022-10-22T03:39:12;100457.69;;;3.74;100.00
49627;BME280;35527;54.616;39.786;2022-10-22T03:42:19;100464.53;;;3.81;100.00
49627;BME280;35527;54.616;39.786;2022-10-22T03:45:21;100479.84;;;3.89;100.00
49627;BME280;35527;54.616;39.786;2022-10-22T03:48:24;100471.31;;;3.88;100.00
49627;BME280;35527;54.616;39.786;2022-10-22T03:51:28;100473.91;;;3.82;100.00
49627;BME280;35527;54.616;39.786;2022-10-22T03:54:32;100476.47;;;3.83;100.00
49627;BME280;35527;54.616;39.786;2022-10-22T03:57:34;100467.06;;;3.76;100.00
49627;BME280;35527;54.616;39.786;2022-10-22T04:00:38;100478.16;;;3.80;100.00
49627;BME280;35527;54.616;39.786;2022-10-22T04:03:42;100473.88;;;3.77;100.00
49627;BME280;35527;54.616;39.786;2022-10-22T04:06:47;100458.53;;;3.76;100.00
49627;BME280;35527;54.616;39.786;2022-10-22T04:09:53;100479.00;;;3.82;100.00
49627;BME280;35527;54.616;39.786;2022-10-22T04:12:57;100467.06;;;3.75;100.00
49627;BME280;35527;54.616;39.786;2022-10-22T04:16:15;100461.06;;;3.80;100.00
49627;BME280;35527;54.616;39.786;2022-10-22T04:19:20;100474.72;;;3.99;100.00
49627;BME280;35527;54.616;39.786;2022-10-22T04:22:22;100484.09;;;4.14;100.00
49627;BME280;35527;54.616;39.786;2022-10-22T04:25:57;100502.84;;;4.30;100.00
49627;BME280;35527;54.616;39.786;2022-10-22T04:29:02;100497.72;;;4.36;100.00
49627;BME280;35527;54.616;39.786;2022-10-22T04:32:06;100500.22;;;4.51;100.00
49627;BME280;35527;54.616;39.786;2022-10-22T04:35:10;100495.09;;;4.51;100.00
49627;BME280;35527;54.616;39.786;2022-10-22T04:38:15;100500.16;;;4.65;100.00
49627;BME280;35527;54.616;39.786;2022-10-22T04:41:20;100497.63;;;4.58;100.00
49627;BME280;35527;54.616;39.786;2022-10-22T04:44:26;100490.81;;;4.57;100.00
49627;BME280;35527;54.616;39.786;2022-10-22T04:47:29;100500.22;;;4.61;100.00
49627;BME280;35527;54.616;39.786;2022-10-22T04:50:34;100495.97;;;4.50;100.00
49627;BME280;35527;54.616;39.786;2022-10-22T04:53:40;100510.47;;;4.61;100.00
49627;BME280;35527;54.616;39.786;2022-10-22T04:56:44;100510.47;;;4.61;100.00
49627;BME280;35527;54.616;39.786;2022-10-22T04:59:47;100484.84;;;4.45;100.00
49627;BME280;35527;54.616;39.786;2022-10-22T05:02:50;100504.44;;;4.66;100.00
49627;BME280;35527;54.616;39.786;2022-10-22T05:05:52;100500.19;;;4.59;100.00
49627;BME280;35527;54.616;39.786;2022-10-22T05:09:05;100506.16;;;4.63;100.00
49627;BME280;35527;54.616;39.786;2022-10-22T05:12:09;100495.94;;;4.55;100.00
49627;BME280;35527;54.616;39.786;2022-10-22T05:15:13;100498.50;;;4.61;100.00
49627;BME280;35527;54.616;39.786;2022-10-22T05:18:18;100508.72;;;4.67;100.00
49627;BME280;35527;54.616;39.786;2022-10-22T05:21:25;100505.25;;;4.79;100.00
49627;BME280;35527;54.616;39.786;2022-10-22T05:24:32;100497.53;;;4.81;100.00
49627;BME280;35527;54.616;39.786;2022-10-22T05:27:38;100514.56;;;4.97;100.00
49627;BME280;35527;54.616;39.786;2022-10-22T05:30:41;100519.66;;;5.08;100.00
49627;BME280;35527;54.616;39.786;2022-10-22T05:33:47;100509.38;;;5.12;100.00
49627;BME280;35527;54.616;39.786;2022-10-22T05:36:49;100515.31;;;5.19;100.00
49627;BME280;35527;54.616;39.786;2022-10-22T05:39:52;100522.19;;;5.15;100.00
49627;BME280;35527;54.616;39.786;2022-10-22T05:42:58;100501.69;;;5.08;100.00
49627;BME280;35527;54.616;39.786;2022-10-22T05:46:37;100528.94;;;5.29;100.00
49627;BME280;35527;54.616;39.786;2022-10-22T05:49:32;100505.00;;;5.25;100.00
49627;BME280;35527;54.616;39.786;2022-10-22T05:52:35;100511.03;;;5.21;100.00
49627;BME280;35527;54.616;39.786;2022-10-22T05:55:38;100525.53;;;5.25;100.00
49627;BME280;35527;54.616;39.786;2022-10-22T05:58:43;100520.34;;;5.31;100.00
49627;BME280;35527;54.616;39.786;2022-10-22T06:01:47;100519.50;;;5.29;100.00
49627;BME280;35527;54.616;39.786;2022-10-22T06:04:50;100515.22;;;5.31;100.00
49627;BME280;35527;54.616;39.786;2022-10-22T06:07:54;100522.78;;;5.54;100.00
49627;BME280;35527;54.616;39.786;2022-10-22T06:11:02;100512.47;;;5.59;100.00
49627;BME280;35527;54.616;39.786;2022-10-22T06:14:04;100531.25;;;5.65;100.00
49627;BME280;35527;54.616;39.786;2022-10-22T06:17:11;100528.69;;;5.65;100.00
49627;BME280;35527;54.616;39.786;2022-10-22T06:20:15;100530.28;;;5.82;100.00
49627;BME280;35527;54.616;39.786;2022-10-22T06:23:20;100526.69;;;6.03;100.00
49627;BME280;35527;54.616;39.786;2022-10-22T06:26:24;100531.81;;;6.06;100.00
49627;BME280;35527;54.616;39.786;2022-10-22T06:29:53;100529.28;;;6.04;100.00
49627;BME280;35527;54.616;39.786;2022-10-22T06:32:56;100542.75;;;6.26;100.00
49627;BME280;35527;54.616;39.786;2022-10-22T06:36:06;100519.59;;;6.31;100.00
49627;BME280;35527;54.616;39.786;2022-10-22T06:39:15;100514.38;;;6.37;100.00
49627;BME280;35527;54.616;39.786;2022-10-22T06:42:19;100528.00;;;6.45;100.00
49627;BME280;35527;54.616;39.786;2022-10-22T06:45:23;100539.06;;;6.52;100.00
49627;BME280;35527;54.616;39.786;2022-10-22T06:48:29;100528.78;;;6.53;100.00
49627;BME280;35527;54.616;39.786;2022-10-22T06:51:32;100534.81;;;6.51;100.00
49627;BME280;35527;54.616;39.786;2022-10-22T06:54:35;100534.84;;;6.48;100.00
49627;BME280;35527;54.616;39.786;2022-10-22T06:57:39;100525.53;;;6.35;100.00
49627;BME280;35527;54.616;39.786;2022-10-22T07:00:44;100528.03;;;6.42;100.00
49627;BME280;35527;54.616;39.786;2022-10-22T07:03:49;100500.00;;;6.18;100.00
49627;BME280;35527;54.616;39.786;2022-10-22T07:06:54;100538.34;;;6.38;100.00
49627;BME280;35527;54.616;39.786;2022-10-22T07:09:57;100523.91;;;6.26;100.00
49627;BME280;35527;54.616;39.786;2022-10-22T07:13:01;100530.81;;;6.22;100.00
49627;BME280;35527;54.616;39.786;2022-10-22T07:16:06;100536.78;;;6.23;100.00
49627;BME280;35527;54.616;39.786;2022-10-22T07:19:13;100524.81;;;6.22;100.00
49627;BME280;35527;54.616;39.786;2022-10-22T07:22:16;100545.13;;;6.48;100.00
49627;BME280;35527;54.616;39.786;2022-10-22T07:25:22;100545.88;;;6.58;100.00
49627;BME280;35527;54.616;39.786;2022-10-22T07:28:25;100540.75;;;6.56;100.00
49627;BME280;35527;54.616;39.786;2022-10-22T07:31:30;100545.06;;;6.54;100.00
49627;BME280;35527;54.616;39.786;2022-10-22T07:34:38;100544.16;;;6.58;100.00
49627;BME280;35527;54.616;39.786;2022-10-22T07:37:43;100535.59;;;6.54;100.00
49627;BME280;35527;54.616;39.786;2022-10-22T07:40:46;100540.84;;;6.47;100.00
49627;BME280;35527;54.616;39.786;2022-10-22T07:43:49;100558.00;;;6.45;100.00
49627;BME280;35527;54.616;39.786;2022-10-22T07:46:52;100549.53;;;6.37;100.00
49627;BME280;35527;54.616;39.786;2022-10-22T07:49:57;100556.34;;;6.39;100.00
49627;BME280;35527;54.616;39.786;2022-10-22T07:53:00;100573.41;;;6.48;100.00
49627;BME280;35527;54.616;39.786;2022-10-22T07:56:02;100558.00;;;6.43;100.00
49627;BME280;35527;54.616;39.786;2022-10-22T07:59:07;100575.03;;;6.57;100.00
49627;BME280;35527;54.616;39.786;2022-10-22T08:02:12;100550.19;;;6.54;100.00
49627;BME280;35527;54.616;39.786;2022-10-22T08:05:15;100559.59;;;6.55;100.00
49627;BME280;35527;54.616;39.786;2022-10-22T08:08:19;100559.59;;;6.58;100.00
49627;BME280;35527;54.616;39.786;2022-10-22T08:11:27;100563.78;;;6.65;100.00
49627;BME280;35527;54.616;39.786;2022-10-22T08:14:36;100555.13;;;6.74;100.00
49627;BME280;35527;54.616;39.786;2022-10-22T08:17:44;100567.72;;;6.98;100.00
49627;BME280;35527;54.616;39.786;2022-10-22T08:20:48;100560.13;;;6.86;100.00
49627;BME280;35527;54.616;39.786;2022-10-22T08:23:53;100572.16;;;6.83;100.00
49627;BME280;35527;54.616;39.786;2022-10-22T08:26:57;100554.50;;;6.53;100.00
49627;BME280;35527;54.616;39.786;2022-10-22T08:30:00;100569.25;;;6.35;100.00
49627;BME280;35527;54.616;39.786;2022-10-22T08:33:05;100575.31;;;6.27;100.00
49627;BME280;35527;54.616;39.786;2022-10-22T08:36:09;100573.75;;;6.13;100.00
49627;BME280;35527;54.616;39.786;2022-10-22T08:39:13;100580.66;;;6.04;100.00
49627;BME280;35527;54.616;39.786;2022-10-22T08:42:43;100581.50;;;6.05;100.00
49627;BME280;35527;54.616;39.786;2022-10-22T08:46:08;100574.56;;;6.15;100.00
49627;BME280;35527;54.616;39.786;2022-10-22T08:49:19;100558.25;;;6.17;100.00
49627;BME280;35527;54.616;39.786;2022-10-22T08:52:24;100542.00;;;6.17;100.00
49627;BME280;35527;54.616;39.786;2022-10-22T08:55:27;100564.16;;;6.28;100.00
49627;BME280;35527;54.616;39.786;2022-10-22T09:05:56;100543.59;;;6.28;100.00
49627;BME280;35527;54.616;39.786;2022-10-22T09:09:04;100565.78;;;6.37;100.00
49627;BME280;35527;54.616;39.786;2022-10-22T09:12:15;100570.84;;;6.46;100.00
49627;BME280;35527;54.616;39.786;2022-10-22T09:15:20;100561.44;;;6.44;100.00
49627;BME280;35527;54.616;39.786;2022-10-22T09:21:48;100565.78;;;6.37;100.00
49627;BME280;35527;54.616;39.786;2022-10-22T09:25:20;100569.16;;;6.47;100.00
49627;BME280;35527;54.616;39.786;2022-10-22T09:28:23;100551.09;;;6.50;100.00
49627;BME280;35527;54.616;39.786;2022-10-22T09:31:31;100557.66;;;6.79;100.00
49627;BME280;35527;54.616;39.786;2022-10-22T09:34:36;100555.84;;;6.84;100.00
49627;BME280;35527;54.616;39.786;2022-10-22T09:37:50;100564.22;;;7.04;100.00
49627;BME280;35527;54.616;39.786;2022-10-22T09:40:56;100544.56;;;6.98;100.00
49627;BME280;35527;54.616;39.786;2022-10-22T09:44:05;100544.59;;;6.94;100.00
49627;BME280;35527;54.616;39.786;2022-10-22T09:50:46;100536.19;;;6.78;100.00
49627;BME280;35527;54.616;39.786;2022-10-22T09:53:59;100562.53;;;7.00;100.00
49627;BME280;35527;54.616;39.786;2022-10-22T09:57:12;100551.25;;;7.09;100.00
49627;BME280;35527;54.616;39.786;2022-10-22T10:00:17;100527.25;;;7.10;100.00
49627;BME280;35527;54.616;39.786;2022-10-22T10:03:23;100545.09;;;7.20;100.00
49627;BME280;35527;54.616;39.786;2022-10-22T10:06:31;100540.88;;;7.15;100.00
49627;BME280;35527;54.616;39.786;2022-10-22T10:09:36;100535.50;;;7.33;100.00
49627;BME280;35527;54.616;39.786;2022-10-22T10:12:43;100544.59;;;7.57;100.00
49627;BME280;35527;54.616;39.786;2022-10-22T10:32:25;100525.50;;;7.69;100.00
49627;BME280;35527;54.616;39.786;2022-10-22T10:35:42;100515.25;;;7.67;100.00
49627;BME280;35527;54.616;39.786;2022-10-22T10:38:58;100536.81;;;7.62;100.00
49627;BME280;35527;54.616;39.786;2022-10-22T10:49:09;100520.72;;;7.46;100.00
49627;BME280;35527;54.616;39.786;2022-10-22T10:52:23;100528.56;;;7.37;100.00
49627;BME280;35527;54.616;39.786;2022-10-22T10:55:36;100512.41;;;7.27;100.00
49627;BME280;35527;54.616;39.786;2022-10-22T10:58:56;100520.06;;;7.32;100.00
49627;BME280;35527;54.616;39.786;2022-10-22T11:02:12;100509.91;;;7.22;100.00
49627;BME280;35527;54.616;39.786;2022-10-22T11:05:38;100516.81;;;7.19;100.00
49627;BME280;35527;54.616;39.786;2022-10-22T11:08:58;100513.47;;;7.12;100.00
49627;BME280;35527;54.616;39.786;2022-10-22T11:12:06;100481.25;;;6.85;100.00
49627;BME280;35527;54.616;39.786;2022-10-22T11:18:31;100511.97;;;6.96;100.00
49627;BME280;35527;54.616;39.786;2022-10-22T11:28:30;100511.19;;;6.91;100.00
49627;BME280;35527;54.616;39.786;2022-10-22T11:31:41;100485.56;;;6.82;100.00
49627;BME280;35527;54.616;39.786;2022-10-22T11:34:52;100497.56;;;6.83;100.00
49627;BME280;35527;54.616;39.786;2022-10-22T11:37:56;100483.09;;;6.74;100.00
49627;BME280;35527;54.616;39.786;2022-10-22T11:41:13;100495.03;;;6.80;100.00
49627;BME280;35527;54.616;39.786;2022-10-22T11:44:21;100497.66;;;6.76;100.00
49627;BME280;35527;54.616;39.786;2022-10-22T11:54:40;100494.09;;;6.85;100.00
49627;BME280;35527;54.616;39.786;2022-10-22T11:57:50;100492.38;;;6.86;100.00
49627;BME280;35527;54.616;39.786;2022-10-22T12:01:16;100490.63;;;6.88;100.00
49627;BME280;35527;54.616;39.786;2022-10-22T12:04:38;100489.75;;;6.90;100.00
49627;BME280;35527;54.616;39.786;2022-10-22T12:08:03;100493.09;;;6.98;100.00
49627;BME280;35527;54.616;39.786;2022-10-22T12:14:37;100490.34;;;7.11;100.00
49627;BME280;35527;54.616;39.786;2022-10-22T12:18:01;100484.38;;;7.07;100.00
49627;BME280;35527;54.616;39.786;2022-10-22T12:21:12;100482.63;;;7.11;100.00
49627;BME280;35527;54.616;39.786;2022-10-22T12:24:17;100489.41;;;7.15;100.00
49627;BME280;35527;54.616;39.786;2022-10-22T12:30:28;100464.44;;;7.20;100.00
49627;BME280;35527;54.616;39.786;2022-10-22T12:33:32;100479.50;;;7.46;100.00
49627;BME280;35527;54.616;39.786;2022-10-22T12:36:35;100480.28;;;7.51;100.00
49627;BME280;35527;54.616;39.786;2022-10-22T12:39:38;100461.56;;;7.41;100.00
49627;BME280;35527;54.616;39.786;2022-10-22T12:42:51;100476.09;;;7.45;100.00
49627;BME280;35527;54.616;39.786;2022-10-22T12:45:55;100484.66;;;7.46;100.00
49627;BME280;35527;54.616;39.786;2022-10-22T12:49:07;100482.16;;;7.41;100.00
49627;BME280;35527;54.616;39.786;2022-10-22T12:52:16;100470.28;;;7.33;100.00
49627;BME280;35527;54.616;39.786;2022-10-22T12:55:22;100451.63;;;7.17;100.00
49627;BME280;35527;54.616;39.786;2022-10-22T12:58:37;100464.56;;;7.12;100.00
49627;BME280;35527;54.616;39.786;2022-10-22T13:01:42;100457.06;;;6.97;100.00
49627;BME280;35527;54.616;39.786;2022-10-22T13:05:15;100471.59;;;7.01;100.00
49627;BME280;35527;54.616;39.786;2022-10-22T13:08:22;100468.31;;;6.90;100.00
49627;BME280;35527;54.616;39.786;2022-10-22T13:11:32;100446.28;;;6.70;100.00
49627;BME280;35527;54.616;39.786;2022-10-22T13:14:37;100459.03;;;6.78;100.00
49627;BME280;35527;54.616;39.786;2022-10-22T13:17:41;100436.88;;;6.68;100.00
49627;BME280;35527;54.616;39.786;2022-10-22T13:20:54;100471.03;;;6.77;100.00
49627;BME280;35527;54.616;39.786;2022-10-22T13:24:01;100468.53;;;6.71;100.00
49627;BME280;35527;54.616;39.786;2022-10-22T13:27:09;100464.28;;;6.69;100.00
49627;BME280;35527;54.616;39.786;2022-10-22T13:30:20;100461.72;;;6.69;100.00
49627;BME280;35527;54.616;39.786;2022-10-22T13:33:37;100454.16;;;6.57;100.00
49627;BME280;35527;54.616;39.786;2022-10-22T13:36:41;100468.78;;;6.53;100.00
49627;BME280;35527;54.616;39.786;2022-10-22T13:39:45;100448.38;;;6.39;100.00
49627;BME280;35527;54.616;39.786;2022-10-22T13:42:48;100466.28;;;6.47;100.00
49627;BME280;35527;54.616;39.786;2022-10-22T13:45:59;100450.09;;;6.39;100.00
49627;BME280;35527;54.616;39.786;2022-10-22T13:49:03;100464.59;;;6.43;100.00
49627;BME280;35527;54.616;39.786;2022-10-22T13:52:10;100440.69;;;6.35;100.00
49627;BME280;35527;54.616;39.786;2022-10-22T13:55:28;100442.44;;;6.34;100.00
49627;BME280;35527;54.616;39.786;2022-10-22T13:58:32;100440.69;;;6.36;100.00
49627;BME280;35527;54.616;39.786;2022-10-22T14:01:37;100438.16;;;6.31;100.00
49627;BME280;35527;54.616;39.786;2022-10-22T14:04:41;100456.94;;;6.40;100.00
49627;BME280;35527;54.616;39.786;2022-10-22T14:07:46;100445.81;;;6.38;100.00
49627;BME280;35527;54.616;39.786;2022-10-22T14:10:51;100434.75;;;6.29;100.00
49627;BME280;35527;54.616;39.786;2022-10-22T14:13:54;100453.56;;;6.35;100.00
49627;BME280;35527;54.616;39.786;2022-10-22T14:16:58;100445.94;;;6.27;100.00
49627;BME280;35527;54.616;39.786;2022-10-22T14:20:06;100448.50;;;6.30;100.00
49627;BME280;35527;54.616;39.786;2022-10-22T14:23:14;100440.00;;;6.22;100.00
49627;BME280;35527;54.616;39.786;2022-10-22T14:26:26;100456.16;;;6.33;100.00
49627;BME280;35527;54.616;39.786;2022-10-22T14:29:32;100450.19;;;6.29;100.00
49627;BME280;35527;54.616;39.786;2022-10-22T14:32:37;100445.13;;;6.23;100.00
49627;BME280;35527;54.616;39.786;2022-10-22T14:35:39;100455.31;;;6.32;100.00
49627;BME280;35527;54.616;39.786;2022-10-22T14:38:47;100454.41;;;6.35;100.00
49627;BME280;35527;54.616;39.786;2022-10-22T14:41:52;100458.75;;;6.31;100.00
49627;BME280;35527;54.616;39.786;2022-10-22T14:44:59;100451.03;;;6.33;100.00
49627;BME280;35527;54.616;39.786;2022-10-22T14:48:04;100460.41;;;6.36;100.00
49627;BME280;35527;54.616;39.786;2022-10-22T14:51:13;100457.06;;;6.27;100.00
49627;BME280;35527;54.616;39.786;2022-10-22T14:54:22;100456.28;;;6.21;100.00
49627;BME280;35527;54.616;39.786;2022-10-22T14:57:27;100444.41;;;6.11;100.00
49627;BME280;35527;54.616;39.786;2022-10-22T15:00:29;100463.19;;;6.17;100.00
49627;BME280;35527;54.616;39.786;2022-10-22T15:03:34;100455.50;;;6.14;100.00
49627;BME280;35527;54.616;39.786;2022-10-22T15:06:38;100465.81;;;6.11;100.00
49627;BME280;35527;54.616;39.786;2022-10-22T15:09:45;100464.91;;;6.17;100.00
49627;BME280;35527;54.616;39.786;2022-10-22T15:13:13;100458.09;;;6.11;100.00
49627;BME280;35527;54.616;39.786;2022-10-22T15:16:18;100464.06;;;6.15;100.00
49627;BME280;35527;54.616;39.786;2022-10-22T15:19:22;100470.91;;;6.14;100.00
49627;BME280;35527;54.616;39.786;2022-10-22T15:22:29;100475.19;;;6.15;100.00
49627;BME280;35527;54.616;39.786;2022-10-22T15:25:33;100457.34;;;6.01;100.00
49627;BME280;35527;54.616;39.786;2022-10-22T15:28:39;100475.28;;;6.06;100.00
49627;BME280;35527;54.616;39.786;2022-10-22T15:31:50;100473.56;;;6.08;100.00
49627;BME280;35527;54.616;39.786;2022-10-22T15:34:54;100471.03;;;6.03;100.00
49627;BME280;35527;54.616;39.786;2022-10-22T15:38:00;100467.59;;;6.03;100.00
49627;BME280;35527;54.616;39.786;2022-10-22T15:41:06;100472.75;;;6.03;100.00
49627;BME280;35527;54.616;39.786;2022-10-22T15:44:36;100459.19;;;5.85;100.00
49627;BME280;35527;54.616;39.786;2022-10-22T15:47:46;100466.84;;;5.90;100.00
49627;BME280;35527;54.616;39.786;2022-10-22T15:50:50;100483.97;;;5.91;100.00
49627;BME280;35527;54.616;39.786;2022-10-22T15:53:55;100468.63;;;5.82;100.00
49627;BME280;35527;54.616;39.786;2022-10-22T15:56:59;100477.09;;;5.92;100.00
49627;BME280;35527;54.616;39.786;2022-10-22T16:00:13;100473.69;;;5.93;100.00
49627;BME280;35527;54.616;39.786;2022-10-22T16:03:16;100482.28;;;5.87;100.00
49627;BME280;35527;54.616;39.786;2022-10-22T16:06:19;100478.00;;;5.87;100.00
49627;BME280;35527;54.616;39.786;2022-10-22T16:09:29;100456.69;;;5.75;100.00
49627;BME280;35527;54.616;39.786;2022-10-22T16:12:32;100472.06;;;5.84;100.00
49627;BME280;35527;54.616;39.786;2022-10-22T16:15:39;100477.97;;;5.91;100.00
49627;BME280;35527;54.616;39.786;2022-10-22T16:18:45;100479.72;;;5.87;100.00
49627;BME280;35527;54.616;39.786;2022-10-22T16:21:51;100477.16;;;5.85;100.00
49627;BME280;35527;54.616;39.786;2022-10-22T16:24:56;100483.13;;;5.86;100.00
49627;BME280;35527;54.616;39.786;2022-10-22T16:27:58;100490.00;;;5.85;100.00
49627;BME280;35527;54.616;39.786;2022-10-22T16:31:07;100485.72;;;5.86;100.00
49627;BME280;35527;54.616;39.786;2022-10-22T16:34:13;100471.22;;;5.77;100.00
49627;BME280;35527;54.616;39.786;2022-10-22T16:37:16;100484.03;;;5.80;100.00
49627;BME280;35527;54.616;39.786;2022-10-22T16:40:19;100484.03;;;5.80;100.00
49627;BME280;35527;54.616;39.786;2022-10-22T16:43:22;100479.78;;;5.79;100.00
49627;BME280;35527;54.616;39.786;2022-10-22T16:46:29;100459.38;;;5.62;100.00
49627;BME280;35527;54.616;39.786;2022-10-22T16:49:32;100480.69;;;5.74;100.00
49627;BME280;35527;54.616;39.786;2022-10-22T16:52:35;100461.94;;;5.62;100.00
49627;BME280;35527;54.616;39.786;2022-10-22T16:55:39;100465.41;;;5.58;100.00
49627;BME280;35527;54.616;39.786;2022-10-22T16:58:48;100469.63;;;5.67;100.00
49627;BME280;35527;54.616;39.786;2022-10-22T17:01:54;100456.84;;;5.59;100.00
49627;BME280;35527;54.616;39.786;2022-10-22T17:04:59;100466.19;;;5.70;100.00
49627;BME280;35527;54.616;39.786;2022-10-22T17:08:06;100467.94;;;5.63;100.00
49627;BME280;35527;54.616;39.786;2022-10-22T17:11:15;100452.56;;;5.60;100.00
49627;BME280;35527;54.616;39.786;2022-10-22T17:14:20;100467.00;;;5.72;100.00
49627;BME280;35527;54.616;39.786;2022-10-22T17:17:22;100454.25;;;5.62;100.00
49627;BME280;35527;54.616;39.786;2022-10-22T17:20:25;100448.25;;;5.60;100.00
49627;BME280;35527;54.616;39.786;2022-10-22T17:23:28;100447.44;;;5.57;100.00